sensor_id;sensor_type;location;lat;lon;timestamp;pressure;altitude;pressure_sealevel;temperature;humidity
33163;BME280;29282;45.656;11.302;2023-02-18T00:01:58;99590.56;;;18.26;43.02
33163;BME280;29282;45.656;11.302;2023-02-18T00:04:23;99587.53;;;18.28;43.17
33163;BME280;29282;45.656;11.302;2023-02-18T00:06:50;99585.59;;;18.28;43.06
33163;BME280;29282;45.656;11.302;2023-02-18T00:09:15;99585.88;;;18.27;42.89
33163;BME280;29282;45.656;11.302;2023-02-18T00:11:40;99583.47;;;18.25;42.85
33163;BME280;29282;45.656;11.302;2023-02-18T00:14:12;99585.41;;;18.25;43.03
33163;BME280;29282;45.656;11.302;2023-02-18T00:16:38;99588.63;;;18.27;43.00
33163;BME280;29282;45.656;11.302;2023-02-18T00:19:05;99594.13;;;18.27;42.90
33163;BME280;29282;45.656;11.302;2023-02-18T00:21:33;99587.00;;;18.26;42.96
33163;BME280;29282;45.656;11.302;2023-02-18T00:23:59;99589.75;;;18.26;42.75
33163;BME280;29282;45.656;11.302;2023-02-18T00:26:25;99589.75;;;18.26;42.90
33163;BME280;29282;45.656;11.302;2023-02-18T00:28:52;99584.56;;;18.24;43.01
33163;BME280;29282;45.656;11.302;2023-02-18T00:31:21;99576.31;;;18.24;42.82
33163;BME280;29282;45.656;11.302;2023-02-18T00:33:47;99580.19;;;18.23;42.77
33163;BME280;29282;45.656;11.302;2023-02-18T00:36:15;99576.31;;;18.24;42.87
33163;BME280;29282;45.656;11.302;2023-02-18T00:38:46;99576.31;;;18.24;42.98
33163;BME280;29282;45.656;11.302;2023-02-18T00:41:12;99575.84;;;18.22;42.71
33163;BME280;29282;45.656;11.302;2023-02-18T00:43:37;99575.84;;;18.22;42.94
33163;BME280;29282;45.656;11.302;2023-02-18T00:46:03;99576.97;;;18.21;42.88
33163;BME280;29282;45.656;11.302;2023-02-18T00:48:28;99573.09;;;18.22;42.79
33163;BME280;29282;45.656;11.302;2023-02-18T00:50:54;99564.34;;;18.20;42.93
33163;BME280;29282;45.656;11.302;2023-02-18T00:53:19;99560.19;;;18.23;42.95
33163;BME280;29282;45.656;11.302;2023-02-18T00:55:47;99561.00;;;18.23;42.61
33163;BME280;29282;45.656;11.302;2023-02-18T00:58:13;99571.16;;;18.23;42.90
33163;BME280;29282;45.656;11.302;2023-02-18T01:00:39;99558.56;;;18.22;42.75
33163;BME280;29282;45.656;11.302;2023-02-18T01:03:05;99564.06;;;18.22;42.74
33163;BME280;29282;45.656;11.302;2023-02-18T01:05:32;99568.72;;;18.21;42.70
33163;BME280;29282;45.656;11.302;2023-02-18T01:07:57;99574.22;;;18.21;42.53
33163;BME280;29282;45.656;11.302;2023-02-18T01:10:23;99572.56;;;18.20;42.77
33163;BME280;29282;45.656;11.302;2023-02-18T01:12:48;99564.06;;;18.22;42.54
33163;BME280;29282;45.656;11.302;2023-02-18T01:15:15;99560.50;;;18.21;42.79
33163;BME280;29282;45.656;11.302;2023-02-18T01:17:41;99555.81;;;18.22;42.82
33163;BME280;29282;45.656;11.302;2023-02-18T01:20:07;99556.63;;;18.22;42.71
33163;BME280;29282;45.656;11.302;2023-02-18T01:22:33;99556.31;;;18.24;42.83
33163;BME280;29282;45.656;11.302;2023-02-18T01:24:59;99553.28;;;18.25;42.61
33163;BME280;29282;45.656;11.302;2023-02-18T01:27:25;99552.47;;;18.25;42.63
33163;BME280;29282;45.656;11.302;2023-02-18T01:29:52;99554.09;;;18.26;42.57
33163;BME280;29282;45.656;11.302;2023-02-18T01:32:18;99550.22;;;18.27;42.36
33163;BME280;29282;45.656;11.302;2023-02-18T01:34:43;99540.91;;;18.28;42.53
33163;BME280;29282;45.656;11.302;2023-02-18T01:37:08;99543.13;;;18.26;42.48
33163;BME280;29282;45.656;11.302;2023-02-18T01:39:34;99544.75;;;18.27;42.34
33163;BME280;29282;45.656;11.302;2023-02-18T01:42:00;99542.53;;;18.29;42.42
33163;BME280;29282;45.656;11.302;2023-02-18T01:44:26;99545.25;;;18.29;42.51
33163;BME280;29282;45.656;11.302;2023-02-18T01:46:52;99545.53;;;18.27;42.30
33163;BME280;29282;45.656;11.302;2023-02-18T01:49:25;99546.06;;;18.29;42.43
33163;BME280;29282;45.656;11.302;2023-02-18T01:52:22;99543.31;;;18.29;42.27
33163;BME280;29282;45.656;11.302;2023-02-18T01:54:51;99537.84;;;18.29;42.32
33163;BME280;29282;45.656;11.302;2023-02-18T01:57:26;99525.53;;;18.27;42.34
33163;BME280;29282;45.656;11.302;2023-02-18T01:59:59;99532.34;;;18.29;42.40
33163;BME280;29282;45.656;11.302;2023-02-18T02:02:27;99537.03;;;18.29;42.19
33163;BME280;29282;45.656;11.302;2023-02-18T02:04:54;99525.25;;;18.28;42.43
33163;BME280;29282;45.656;11.302;2023-02-18T02:07:21;99530.13;;;18.31;42.33
33163;BME280;29282;45.656;11.302;2023-02-18T02:09:49;99526.88;;;18.29;42.19
33163;BME280;29282;45.656;11.302;2023-02-18T02:21:05;99526.25;;;18.33;42.14
33163;BME280;29282;45.656;11.302;2023-02-18T02:24:21;99518.22;;;18.36;42.06
33163;BME280;29282;45.656;11.302;2023-02-18T02:27:25;99519.66;;;18.34;42.13
33163;BME280;29282;45.656;11.302;2023-02-18T02:35:24;99512.22;;;18.34;42.05
33163;BME280;29282;45.656;11.302;2023-02-18T02:43:33;99496.59;;;18.35;42.10
33163;BME280;29282;45.656;11.302;2023-02-18T02:46:13;99503.50;;;18.32;42.07
33163;BME280;29282;45.656;11.302;2023-02-18T02:51:58;99496.41;;;18.31;41.99
33163;BME280;29282;45.656;11.302;2023-02-18T02:54:27;99492.00;;;18.30;42.02
33163;BME280;29282;45.656;11.302;2023-02-18T02:59:46;99480.22;;;18.29;42.06
33163;BME280;29282;45.656;11.302;2023-02-18T03:07:56;99475.88;;;18.28;42.04
33163;BME280;29282;45.656;11.302;2023-02-18T03:10:56;99476.69;;;18.29;42.01
33163;BME280;29282;45.656;11.302;2023-02-18T03:14:03;99472.00;;;18.29;41.98
33163;BME280;29282;45.656;11.302;2023-02-18T03:16:52;99470.88;;;18.30;41.97
33163;BME280;29282;45.656;11.302;2023-02-18T03:19:34;99472.81;;;18.30;41.90
33163;BME280;29282;45.656;11.302;2023-02-18T03:22:10;99465.38;;;18.30;41.97
33163;BME280;29282;45.656;11.302;2023-02-18T03:24:46;99478.81;;;18.32;42.07
33163;BME280;29282;45.656;11.302;2023-02-18T03:27:17;99479.94;;;18.31;42.06
33163;BME280;29282;45.656;11.302;2023-02-18T03:29:49;99478.81;;;18.32;41.87
33163;BME280;29282;45.656;11.302;2023-02-18T03:32:20;99477.19;;;18.31;42.10
33163;BME280;29282;45.656;11.302;2023-02-18T03:34:50;99480.75;;;18.31;42.06
33163;BME280;29282;45.656;11.302;2023-02-18T03:37:19;99483.50;;;18.31;41.98
33163;BME280;29282;45.656;11.302;2023-02-18T03:39:49;99474.13;;;18.33;42.07
33163;BME280;29282;45.656;11.302;2023-02-18T03:42:17;99474.94;;;18.33;41.96
33163;BME280;29282;45.656;11.302;2023-02-18T03:44:43;99481.22;;;18.34;41.78
33163;BME280;29282;45.656;11.302;2023-02-18T03:47:10;99473.00;;;18.34;41.98
33163;BME280;29282;45.656;11.302;2023-02-18T03:49:36;99471.06;;;18.34;41.77
33163;BME280;29282;45.656;11.302;2023-02-18T03:52:01;99472.72;;;18.35;41.86
33163;BME280;29282;45.656;11.302;2023-02-18T03:54:27;99469.78;;;18.31;41.86
33163;BME280;29282;45.656;11.302;2023-02-18T03:56:52;99485.91;;;18.33;41.96
33163;BME280;29282;45.656;11.302;2023-02-18T03:59:18;99489.47;;;18.34;41.87
33163;BME280;29282;45.656;11.302;2023-02-18T04:01:43;99476.88;;;18.33;41.75
33163;BME280;29282;45.656;11.302;2023-02-18T04:04:09;99480.13;;;18.35;41.72
33163;BME280;29282;45.656;11.302;2023-02-18T04:06:34;99472.81;;;18.30;41.82
33163;BME280;29282;45.656;11.302;2023-02-18T04:09:00;99475.25;;;18.31;41.83
33163;BME280;29282;45.656;11.302;2023-02-18T04:11:26;99465.38;;;18.30;41.97
33163;BME280;29282;45.656;11.302;2023-02-18T04:13:52;99472.53;;;18.31;41.75
33163;BME280;29282;45.656;11.302;2023-02-18T04:16:17;99468.66;;;18.33;41.76
33163;BME280;29282;45.656;11.302;2023-02-18T04:18:43;99456.88;;;18.32;41.69
33163;BME280;29282;45.656;11.302;2023-02-18T04:21:08;99459.59;;;18.32;41.76
33163;BME280;29282;45.656;11.302;2023-02-18T04:23:34;99462.63;;;18.30;41.78
33163;BME280;29282;45.656;11.302;2023-02-18T04:25:59;99469.78;;;18.31;41.74
33163;BME280;29282;45.656;11.302;2023-02-18T04:28:25;99467.53;;;18.34;41.68
33163;BME280;29282;45.656;11.302;2023-02-18T04:30:50;99470.59;;;18.32;41.83
33163;BME280;29282;45.656;11.302;2023-02-18T04:33:16;99467.84;;;18.32;41.88
33163;BME280;29282;45.656;11.302;2023-02-18T04:35:41;99479.09;;;18.30;41.58
33163;BME280;29282;45.656;11.302;2023-02-18T04:38:08;99478.00;;;18.31;41.86
33163;BME280;29282;45.656;11.302;2023-02-18T04:40:35;99478.81;;;18.32;41.69
33163;BME280;29282;45.656;11.302;2023-02-18T04:43:01;99483.50;;;18.31;41.75
33163;BME280;29282;45.656;11.302;2023-02-18T04:45:27;99479.94;;;18.31;41.82
33163;BME280;29282;45.656;11.302;2023-02-18T04:47:53;99478.81;;;18.32;41.83
33163;BME280;29282;45.656;11.302;2023-02-18T04:50:20;99477.19;;;18.31;41.75
33163;BME280;29282;45.656;11.302;2023-02-18T04:52:45;99475.25;;;18.31;41.77
33163;BME280;29282;45.656;11.302;2023-02-18T04:55:11;99478.50;;;18.34;41.70
33163;BME280;29282;45.656;11.302;2023-02-18T04:57:36;99475.47;;;18.35;41.63
33163;BME280;29282;45.656;11.302;2023-02-18T05:00:04;99479.31;;;18.34;41.67
33163;BME280;29282;45.656;11.302;2023-02-18T05:02:31;99477.41;;;18.35;41.72
33163;BME280;29282;45.656;11.302;2023-02-18T05:04:56;99471.91;;;18.35;41.58
33163;BME280;29282;45.656;11.302;2023-02-18T05:07:22;99460.63;;;18.36;41.64
33163;BME280;29282;45.656;11.302;2023-02-18T05:09:48;99456.53;;;18.34;41.61
33163;BME280;29282;45.656;11.302;2023-02-18T05:12:13;99457.34;;;18.34;41.76
33163;BME280;29282;45.656;11.302;2023-02-18T05:14:39;99474.66;;;18.35;41.49
33163;BME280;29282;45.656;11.302;2023-02-18T05:17:04;99463.34;;;18.36;41.54
33163;BME280;29282;45.656;11.302;2023-02-18T05:19:29;99458.19;;;18.35;41.56
33163;BME280;29282;45.656;11.302;2023-02-18T05:21:55;99458.69;;;18.37;41.71
33163;BME280;29282;45.656;11.302;2023-02-18T05:24:20;99460.09;;;18.34;41.66
33163;BME280;29282;45.656;11.302;2023-02-18T05:26:46;99460.31;;;18.38;41.55
33163;BME280;29282;45.656;11.302;2023-02-18T05:29:12;99465.81;;;18.38;41.64
33163;BME280;29282;45.656;11.302;2023-02-18T05:31:37;99462.22;;;18.37;41.49
33163;BME280;29282;45.656;11.302;2023-02-18T05:34:03;99464.16;;;18.37;41.44
33163;BME280;29282;45.656;11.302;2023-02-18T05:36:28;99474.34;;;18.36;41.55
33163;BME280;29282;45.656;11.302;2023-02-18T05:38:54;99469.66;;;18.37;41.53
33163;BME280;29282;45.656;11.302;2023-02-18T05:41:20;99464.16;;;18.37;41.52
33163;BME280;29282;45.656;11.302;2023-02-18T05:43:46;99460.31;;;18.38;41.61
33163;BME280;29282;45.656;11.302;2023-02-18T05:46:30;99477.88;;;18.37;41.43
33163;BME280;29282;45.656;11.302;2023-02-18T05:48:56;99480.34;;;18.38;41.56
33163;BME280;29282;45.656;11.302;2023-02-18T05:51:21;99474.03;;;18.38;41.60
33163;BME280;29282;45.656;11.302;2023-02-18T05:53:47;99469.38;;;18.38;41.40
33163;BME280;29282;45.656;11.302;2023-02-18T05:56:12;99477.88;;;18.37;41.54
33163;BME280;29282;45.656;11.302;2023-02-18T05:58:38;99481.75;;;18.36;41.40
33163;BME280;29282;45.656;11.302;2023-02-18T06:01:03;99481.75;;;18.36;41.63
33163;BME280;29282;45.656;11.302;2023-02-18T06:03:29;99485.63;;;18.35;41.45
33163;BME280;29282;45.656;11.302;2023-02-18T06:05:55;99495.75;;;18.34;41.62
33163;BME280;29282;45.656;11.302;2023-02-18T06:08:21;99502.56;;;18.37;41.59
33163;BME280;29282;45.656;11.302;2023-02-18T06:10:47;99494.94;;;18.34;41.64
33163;BME280;29282;45.656;11.302;2023-02-18T06:13:12;99501.25;;;18.34;41.48
33163;BME280;29282;45.656;11.302;2023-02-18T06:15:38;99494.47;;;18.31;41.50
33163;BME280;29282;45.656;11.302;2023-02-18T06:18:05;99503.50;;;18.32;41.48
33163;BME280;29282;45.656;11.302;2023-02-18T06:20:31;99506.25;;;18.32;41.47
33163;BME280;29282;45.656;11.302;2023-02-18T06:22:57;99509.00;;;18.32;41.52
33163;BME280;29282;45.656;11.302;2023-02-18T06:25:22;99519.66;;;18.34;41.42
33163;BME280;29282;45.656;11.302;2023-02-18T06:27:48;99503.19;;;18.34;41.53
33163;BME280;29282;45.656;11.302;2023-02-18T06:30:13;99508.66;;;18.34;41.54
33163;BME280;29282;45.656;11.302;2023-02-18T06:32:39;99511.41;;;18.34;41.62
33163;BME280;29282;45.656;11.302;2023-02-18T06:35:05;99514.47;;;18.32;41.50
33163;BME280;29282;45.656;11.302;2023-02-18T06:37:31;99508.38;;;18.35;41.41
33163;BME280;29282;45.656;11.302;2023-02-18T06:39:57;99511.41;;;18.34;41.85
33163;BME280;29282;45.656;11.302;2023-02-18T06:42:22;99519.66;;;18.34;41.35
33163;BME280;29282;45.656;11.302;2023-02-18T06:44:48;99517.44;;;18.36;41.39
33163;BME280;29282;45.656;11.302;2023-02-18T06:47:13;99520.16;;;18.36;41.40
33163;BME280;29282;45.656;11.302;2023-02-18T06:49:39;99511.31;;;18.39;41.56
33163;BME280;29282;45.656;11.302;2023-02-18T06:52:04;99506.44;;;18.36;41.48
33163;BME280;29282;45.656;11.302;2023-02-18T06:54:31;99506.44;;;18.36;41.48
33163;BME280;29282;45.656;11.302;2023-02-18T06:56:57;99516.91;;;18.34;41.34
33163;BME280;29282;45.656;11.302;2023-02-18T06:59:23;99519.97;;;18.32;41.42
33163;BME280;29282;45.656;11.302;2023-02-18T07:01:49;99524.31;;;18.33;41.40
33163;BME280;29282;45.656;11.302;2023-02-18T07:04:16;99518.84;;;18.33;41.41
33163;BME280;29282;45.656;11.302;2023-02-18T07:06:42;99526.78;;;18.35;41.49
33163;BME280;29282;45.656;11.302;2023-02-18T07:09:07;99518.56;;;18.35;41.50
33163;BME280;29282;45.656;11.302;2023-02-18T07:11:33;99516.91;;;18.34;41.51
33163;BME280;29282;45.656;11.302;2023-02-18T07:13:58;99522.91;;;18.36;41.46
33163;BME280;29282;45.656;11.302;2023-02-18T07:16:24;99518.56;;;18.35;41.52
33163;BME280;29282;45.656;11.302;2023-02-18T07:18:49;99526.78;;;18.35;41.49
33163;BME280;29282;45.656;11.302;2023-02-18T07:21:15;99528.09;;;18.37;41.39
33163;BME280;29282;45.656;11.302;2023-02-18T07:23:40;99528.09;;;18.37;41.38
33163;BME280;29282;45.656;11.302;2023-02-18T07:26:08;99525.06;;;18.39;41.45
33163;BME280;29282;45.656;11.302;2023-02-18T07:28:34;99535.00;;;18.35;41.31
33163;BME280;29282;45.656;11.302;2023-02-18T07:30:59;99535.81;;;18.35;41.33
33163;BME280;29282;45.656;11.302;2023-02-18T07:33:25;99533.88;;;18.36;41.43
33163;BME280;29282;45.656;11.302;2023-02-18T07:35:55;99535.00;;;18.35;41.28
33163;BME280;29282;45.656;11.302;2023-02-18T07:38:21;99541.31;;;18.35;41.44
33163;BME280;29282;45.656;11.302;2023-02-18T07:40:47;99532.75;;;18.37;41.41
33163;BME280;29282;45.656;11.302;2023-02-18T07:43:13;99528.69;;;18.34;41.34
33163;BME280;29282;45.656;11.302;2023-02-18T07:45:38;99531.53;;;18.43;41.19
33163;BME280;29282;45.656;11.302;2023-02-18T07:48:04;99535.72;;;18.54;41.06
33163;BME280;29282;45.656;11.302;2023-02-18T07:50:30;99540.69;;;18.66;40.69
33163;BME280;29282;45.656;11.302;2023-02-18T07:53:00;99538.38;;;18.73;40.64
33163;BME280;29282;45.656;11.302;2023-02-18T07:55:25;99539.09;;;18.78;40.48
33163;BME280;29282;45.656;11.302;2023-02-18T07:58:11;99546.22;;;18.80;40.66
33163;BME280;29282;45.656;11.302;2023-02-18T08:00:36;99542.03;;;18.82;40.52
33163;BME280;29282;45.656;11.302;2023-02-18T08:03:02;99537.38;;;18.83;40.65
33163;BME280;29282;45.656;11.302;2023-02-18T08:05:28;99536.56;;;18.82;40.78
33163;BME280;29282;45.656;11.302;2023-02-18T08:07:53;99544.19;;;18.85;40.63
33163;BME280;29282;45.656;11.302;2023-02-18T08:10:19;99545.59;;;18.83;40.71
33163;BME280;29282;45.656;11.302;2023-02-18T08:12:45;99546.41;;;18.83;40.77
33163;BME280;29282;45.656;11.302;2023-02-18T08:15:10;99542.34;;;18.81;40.77
33163;BME280;29282;45.656;11.302;2023-02-18T08:17:36;99552.22;;;18.82;40.75
33163;BME280;29282;45.656;11.302;2023-02-18T08:20:02;99543.47;;;18.80;40.77
33163;BME280;29282;45.656;11.302;2023-02-18T08:22:28;99537.16;;;18.79;40.91
33163;BME280;29282;45.656;11.302;2023-02-18T08:24:54;99539.50;;;18.86;40.75
33163;BME280;29282;45.656;11.302;2023-02-18T08:27:20;99528.41;;;18.91;40.70
33163;BME280;29282;45.656;11.302;2023-02-18T08:29:46;99534.31;;;18.98;40.60
33163;BME280;29282;45.656;11.302;2023-02-18T08:32:12;99535.16;;;19.07;40.44
33163;BME280;29282;45.656;11.302;2023-02-18T08:34:37;99533.13;;;19.13;40.42
33163;BME280;29282;45.656;11.302;2023-02-18T08:37:03;99531.91;;;19.19;40.31
33163;BME280;29282;45.656;11.302;2023-02-18T08:39:36;99536.16;;;19.25;40.22
33163;BME280;29282;45.656;11.302;2023-02-18T08:42:03;99538.50;;;19.32;40.25
33163;BME280;29282;45.656;11.302;2023-02-18T08:44:28;99536.53;;;19.32;40.35
33163;BME280;29282;45.656;11.302;2023-02-18T08:46:54;99540.91;;;19.33;40.28
33163;BME280;29282;45.656;11.302;2023-02-18T08:49:19;99545.78;;;19.36;40.47
33163;BME280;29282;45.656;11.302;2023-02-18T08:51:46;99541.63;;;19.39;40.68
33163;BME280;29282;45.656;11.302;2023-02-18T08:54:12;99527.34;;;19.37;40.69
33163;BME280;29282;45.656;11.302;2023-02-18T08:56:38;99516.88;;;19.39;40.65
33163;BME280;29282;45.656;11.302;2023-02-18T08:59:04;99511.09;;;19.40;40.70
33163;BME280;29282;45.656;11.302;2023-02-18T09:01:31;99514.66;;;19.41;40.71
33163;BME280;29282;45.656;11.302;2023-02-18T09:03:56;99517.41;;;19.41;40.79
33163;BME280;29282;45.656;11.302;2023-02-18T09:06:22;99512.69;;;19.41;41.07
33163;BME280;29282;45.656;11.302;2023-02-18T09:08:48;99515.13;;;19.43;40.94
33163;BME280;29282;45.656;11.302;2023-02-18T09:11:15;99523.88;;;19.45;40.93
33163;BME280;29282;45.656;11.302;2023-02-18T09:13:40;99521.44;;;19.43;40.99
33163;BME280;29282;45.656;11.302;2023-02-18T09:16:09;99521.44;;;19.43;41.16
33163;BME280;29282;45.656;11.302;2023-02-18T09:18:36;99531.63;;;19.43;41.03
33163;BME280;29282;45.656;11.302;2023-02-18T09:21:03;99532.75;;;19.42;41.20
33163;BME280;29282;45.656;11.302;2023-02-18T09:23:30;99523.69;;;19.41;41.16
33163;BME280;29282;45.656;11.302;2023-02-18T09:25:56;99520.94;;;19.41;41.28
33163;BME280;29282;45.656;11.302;2023-02-18T09:28:23;99519.34;;;19.40;41.22
33163;BME280;29282;45.656;11.302;2023-02-18T09:30:49;99522.88;;;19.41;41.31
33163;BME280;29282;45.656;11.302;2023-02-18T09:33:15;99519.00;;;19.42;41.34
33163;BME280;29282;45.656;11.302;2023-02-18T09:35:42;99519.81;;;19.42;41.40
33163;BME280;29282;45.656;11.302;2023-02-18T09:38:14;99514.66;;;19.41;41.50
33163;BME280;29282;45.656;11.302;2023-02-18T09:40:49;99516.78;;;19.44;41.26
33163;BME280;29282;45.656;11.302;2023-02-18T09:43:32;99518.69;;;19.43;41.36
33163;BME280;29282;45.656;11.302;2023-02-18T09:46:00;99512.88;;;19.45;41.21
33163;BME280;29282;45.656;11.302;2023-02-18T09:48:29;99513.69;;;19.45;41.60
33163;BME280;29282;45.656;11.302;2023-02-18T09:50:56;99512.56;;;19.46;41.44
33163;BME280;29282;45.656;11.302;2023-02-18T09:53:23;99507.91;;;19.47;41.48
33163;BME280;29282;45.656;11.302;2023-02-18T09:55:51;99510.25;;;19.62;41.20
33163;BME280;29282;45.656;11.302;2023-02-18T09:58:25;99518.53;;;19.85;40.92
33163;BME280;29282;45.656;11.302;2023-02-18T10:01:31;99510.78;;;19.87;40.70
33163;BME280;29282;45.656;11.302;2023-02-18T10:04:05;99513.16;;;19.80;40.98
33163;BME280;29282;45.656;11.302;2023-02-18T10:06:33;99514.09;;;19.75;41.07
33163;BME280;29282;45.656;11.302;2023-02-18T10:09:04;99510.38;;;19.71;41.06
33163;BME280;29282;45.656;11.302;2023-02-18T10:11:34;99507.44;;;19.67;41.48
33163;BME280;29282;45.656;11.302;2023-02-18T10:14:04;99512.31;;;19.70;41.52
33163;BME280;29282;45.656;11.302;2023-02-18T10:16:33;99517.28;;;19.68;41.46
33163;BME280;29282;45.656;11.302;2023-02-18T10:19:04;99514.22;;;19.70;41.55
33163;BME280;29282;45.656;11.302;2023-02-18T10:21:34;99513.59;;;19.73;41.71
33163;BME280;29282;45.656;11.302;2023-02-18T10:26:44;99510.84;;;19.73;41.38
33163;BME280;29282;45.656;11.302;2023-02-18T10:29:17;99510.53;;;19.75;41.19
33163;BME280;29282;45.656;11.302;2023-02-18T10:31:52;99514.44;;;19.74;41.62
33163;BME280;29282;45.656;11.302;2023-02-18T10:34:39;99506.66;;;19.76;41.40
33163;BME280;29282;45.656;11.302;2023-02-18T10:45:27;99501.66;;;19.78;41.26
33163;BME280;29282;45.656;11.302;2023-02-18T10:51:03;99509.28;;;19.81;41.42
33163;BME280;29282;45.656;11.302;2023-02-18T10:53:40;99502.66;;;19.82;41.43
33163;BME280;29282;45.656;11.302;2023-02-18T10:56:07;99503.16;;;19.84;41.32
33163;BME280;29282;45.656;11.302;2023-02-18T10:58:35;99493.78;;;19.85;41.29
33163;BME280;29282;45.656;11.302;2023-02-18T11:01:20;99484.41;;;19.86;41.52
33163;BME280;29282;45.656;11.302;2023-02-18T11:03:49;99482.44;;;19.86;41.13
33163;BME280;29282;45.656;11.302;2023-02-18T11:09:05;99468.69;;;19.86;41.35
33163;BME280;29282;45.656;11.302;2023-02-18T11:11:33;99456.91;;;19.86;41.30
33163;BME280;29282;45.656;11.302;2023-02-18T11:14:03;99459.66;;;19.86;41.23
33163;BME280;29282;45.656;11.302;2023-02-18T11:16:40;99460.97;;;19.88;41.20
33163;BME280;29282;45.656;11.302;2023-02-18T11:19:36;99459.34;;;19.87;41.19
33163;BME280;29282;45.656;11.302;2023-02-18T11:24:53;99447.84;;;19.85;41.42
33163;BME280;29282;45.656;11.302;2023-02-18T11:27:27;99449.78;;;19.85;41.34
33163;BME280;29282;45.656;11.302;2023-02-18T11:30:03;99445.91;;;19.86;41.40
33163;BME280;29282;45.656;11.302;2023-02-18T11:32:30;99448.66;;;19.86;41.34
33163;BME280;29282;45.656;11.302;2023-02-18T11:34:58;99451.72;;;19.84;41.56
33163;BME280;29282;45.656;11.302;2023-02-18T11:37:24;99448.97;;;19.84;41.37
33163;BME280;29282;45.656;11.302;2023-02-18T11:39:52;99450.41;;;19.82;41.47
33163;BME280;29282;45.656;11.302;2023-02-18T11:42:21;99439.91;;;19.84;41.41
33163;BME280;29282;45.656;11.302;2023-02-18T11:44:56;99441.19;;;19.86;41.22
33163;BME280;29282;45.656;11.302;2023-02-18T11:47:40;99434.09;;;19.85;41.41
33163;BME280;29282;45.656;11.302;2023-02-18T11:52:39;99428.91;;;19.84;41.60
33163;BME280;29282;45.656;11.302;2023-02-18T11:55:07;99422.91;;;19.82;41.50
33163;BME280;29282;45.656;11.302;2023-02-18T11:57:36;99430.66;;;19.80;41.46
33163;BME280;29282;45.656;11.302;2023-02-18T12:00:09;99421.28;;;19.81;41.34
33163;BME280;29282;45.656;11.302;2023-02-18T12:02:40;99423.53;;;19.79;41.43
33163;BME280;29282;45.656;11.302;2023-02-18T12:05:25;99415.91;;;19.76;41.37
33163;BME280;29282;45.656;11.302;2023-02-18T12:10:51;99398.66;;;19.84;41.32
33163;BME280;29282;45.656;11.302;2023-02-18T12:13:36;99397.38;;;19.90;41.21
33163;BME280;29282;45.656;11.302;2023-02-18T12:53:48;99343.88;;;20.05;41.15
33163;BME280;29282;45.656;11.302;2023-02-18T13:02:38;99338.69;;;20.03;41.25
33163;BME280;29282;45.656;11.302;2023-02-18T13:11:39;99328.81;;;20.02;41.24
33163;BME280;29282;45.656;11.302;2023-02-18T13:14:30;99323.66;;;20.01;41.14
33163;BME280;29282;45.656;11.302;2023-02-18T13:16:59;99318.94;;;20.01;41.67
33163;BME280;29282;45.656;11.302;2023-02-18T13:19:29;99312.47;;;19.97;41.36
33163;BME280;29282;45.656;11.302;2023-02-18T13:22:03;99301.13;;;19.99;41.35
33163;BME280;29282;45.656;11.302;2023-02-18T13:24:33;99305.84;;;19.98;41.35
33163;BME280;29282;45.656;11.302;2023-02-18T13:27:09;99305.03;;;19.98;41.29
33163;BME280;29282;45.656;11.302;2023-02-18T13:30:18;99312.94;;;19.99;41.33
33163;BME280;29282;45.656;11.302;2023-02-18T13:35:51;99308.25;;;20.00;41.24
33163;BME280;29282;45.656;11.302;2023-02-18T13:41:08;99291.09;;;20.03;41.11
33163;BME280;29282;45.656;11.302;2023-02-18T13:43:34;99287.09;;;20.00;41.23
33163;BME280;29282;45.656;11.302;2023-02-18T13:51:39;99293.38;;;20.01;41.26
33163;BME280;29282;45.656;11.302;2023-02-18T13:56:51;99282.06;;;20.02;41.11
33163;BME280;29282;45.656;11.302;2023-02-18T14:01:50;99284.50;;;20.04;41.14
33163;BME280;29282;45.656;11.302;2023-02-18T14:09:53;99284.81;;;20.02;40.91
33163;BME280;29282;45.656;11.302;2023-02-18T14:17:46;99281.25;;;20.02;41.11
33163;BME280;29282;45.656;11.302;2023-02-18T14:22:46;99269.91;;;20.03;40.94
33163;BME280;29282;45.656;11.302;2023-02-18T14:27:51;99261.19;;;20.01;41.02
33163;BME280;29282;45.656;11.302;2023-02-18T14:32:49;99259.25;;;20.02;40.48
33163;BME280;29282;45.656;11.302;2023-02-18T14:35:36;99254.53;;;20.02;41.05
33163;BME280;29282;45.656;11.302;2023-02-18T14:38:10;99259.41;;;20.05;40.81
33163;BME280;29282;45.656;11.302;2023-02-18T14:50:53;99255.03;;;20.04;40.73
33163;BME280;29282;45.656;11.302;2023-02-18T14:53:23;99252.28;;;20.04;40.88
33163;BME280;29282;45.656;11.302;2023-02-18T14:56:02;99240.94;;;20.06;40.79
33163;BME280;29282;45.656;11.302;2023-02-18T14:58:31;99238.53;;;20.04;40.69
33163;BME280;29282;45.656;11.302;2023-02-18T15:01:25;99234.00;;;20.08;40.74
33163;BME280;29282;45.656;11.302;2023-02-18T15:03:53;99237.41;;;20.05;40.79
33163;BME280;29282;45.656;11.302;2023-02-18T15:08:52;99229.16;;;20.05;40.75
33163;BME280;29282;45.656;11.302;2023-02-18T15:11:21;99237.91;;;20.07;40.58
33163;BME280;29282;45.656;11.302;2023-02-18T15:13:48;99233.50;;;20.06;40.85
33163;BME280;29282;45.656;11.302;2023-02-18T15:16:21;99238.69;;;20.08;40.59
33163;BME280;29282;45.656;11.302;2023-02-18T15:19:00;99231.75;;;20.10;40.72
33163;BME280;29282;45.656;11.302;2023-02-18T15:21:34;99233.84;;;20.22;40.56
33163;BME280;29282;45.656;11.302;2023-02-18T15:24:06;99236.28;;;20.24;40.42
33163;BME280;29282;45.656;11.302;2023-02-18T15:26:35;99231.75;;;20.19;40.56
33163;BME280;29282;45.656;11.302;2023-02-18T15:29:19;99229.63;;;20.16;40.66
33163;BME280;29282;45.656;11.302;2023-02-18T15:31:46;99229.00;;;20.10;40.64
33163;BME280;29282;45.656;11.302;2023-02-18T15:34:37;99223.81;;;20.09;40.61
33163;BME280;29282;45.656;11.302;2023-02-18T15:37:10;99224.94;;;20.08;40.56